Archival Weather

Joint Base Andrews

Camp Springs, Maryland (KADW)

Report from: Tuesday, February 27, 2024 3:53 PM EST
Current time: Wednesday, May 29, 2024 7:33 PM EDT

Current weather – Weather history – Daily summaries
Weather forecast

Temperature15.0°C (59.0°F)
Dew point11.0°C (51.8°F)
Winds 17 kts (8.7 m/s, 19.6 mph) South-Southwest (200°)
Visibility10 mi. (16.1 km)
Clouds Scattered clouds 2,500 ft. (762 m)
Ceiling: Overcast 3,300 ft. (1,006 m)
Altimeter29.82 in.Hg (1010 mB)
Precip. events Drizzle ended 7:54 PM
Drizzle began 8:12 PM
Drizzle ended 8:16 PM
Rain began 8:16 PM
Rain ended 8:37 PM
Drizzle began 8:37 PM
Drizzle ended 8:43 PM
Rain began 8:43 PM
Rain ended 8:53 PM
Relative humidity77 %
Density altitude278 ft. (85 m)
Sea-level pressure101.1 kPa (1011 mB, 29.84 in.Hg)
Remarks Fully automated report
System requires maintenance
Automated weather observing station with precipitation discriminator
Flight conditions Visual Meteorological Conditions
Raw dataKADW 272053Z AUTO 20017KT 10SM SCT025 OVC033 15/11 A2982 RMK AO2 DZE1954DZB12E16RAB16E37DZB37E43RAB43E53 SLP105 $
An error has occurred. This application may no longer respond until reloaded. Reload 🗙